Time;durP1;ratioP1;P1;durP2;ratioP2;P2;SDS_P1;SDS_P2;PMS_P1;PMS_P2;Temp;Humidity;BMP_temperature;BMP_pressure;BME280_temperature;BME280_humidity;BME280_pressure;Samples;Min_cycle;Max_cycle;Signal;HPM_P1;HPM_P2
2022/01/12 00:01:06;;;;;;;74.85;35.78;;;3.00;99.90;;;;;;5094324;28;20036;-57
2022/01/12 00:03:33;;;;;;;64.72;31.75;;;3.10;99.90;;;;;;5081239;28;20039;-57
2022/01/12 00:06:00;;;;;;;64.10;32.03;;;3.10;99.90;;;;;;5097392;28;20043;-56
2022/01/12 00:08:26;;;;;;;63.90;31.05;;;3.10;99.90;;;;;;5103410;28;20110;-56
2022/01/12 00:10:52;;;;;;;70.18;32.78;;;3.10;99.90;;;;;;5100791;28;20453;-57
2022/01/12 00:13:18;;;;;;;64.27;31.93;;;3.10;99.90;;;;;;5083568;28;20122;-56
2022/01/12 00:15:44;;;;;;;70.07;32.87;;;3.10;99.90;;;;;;5093694;28;20074;-56
2022/01/12 00:18:09;;;;;;;74.88;34.30;;;3.10;99.90;;;;;;5082950;28;20314;-58
2022/01/12 00:20:35;;;;;;;72.63;36.43;;;3.20;99.90;;;;;;5084781;28;20382;-57
2022/01/12 00:23:01;;;;;;;74.47;35.10;;;3.20;99.90;;;;;;5081658;28;20545;-57
2022/01/12 00:25:30;;;;;;;73.77;35.27;;;3.20;99.90;;;;;;5075943;28;20036;-56
2022/01/12 00:33:24;;;;;;;70.05;34.22;;;3.20;99.90;;;;;;5093037;28;20040;-52
2022/01/12 00:35:53;;;;;;;58.07;31.63;;;3.20;99.90;;;;;;5095194;28;20039;-55
2022/01/12 00:38:21;;;;;;;64.63;32.15;;;3.30;99.90;;;;;;5097042;28;20036;-53
2022/01/12 00:40:49;;;;;;;70.78;32.50;;;3.30;99.90;;;;;;5100077;28;20039;-56
2022/01/12 00:43:17;;;;;;;66.88;34.60;;;3.30;99.90;;;;;;5104126;28;20043;-57
2022/01/12 00:45:44;;;;;;;63.17;34.17;;;3.30;99.90;;;;;;5095822;28;20389;-57
2022/01/12 00:48:10;;;;;;;63.75;31.05;;;3.30;99.90;;;;;;5101794;28;20038;-55
2022/01/12 00:50:36;;;;;;;58.77;31.30;;;3.30;99.90;;;;;;5098350;28;20043;-57
2022/01/12 00:53:03;;;;;;;58.22;30.98;;;3.30;99.90;;;;;;5107143;28;20781;-57
2022/01/12 00:55:30;;;;;;;64.22;32.63;;;3.30;99.90;;;;;;5098834;28;20035;-57
2022/01/12 00:57:58;;;;;;;57.05;32.78;;;3.30;99.90;;;;;;5108169;28;20031;-55
2022/01/12 01:00:25;;;;;;;59.05;32.08;;;3.30;99.90;;;;;;5100682;28;20207;-55
2022/01/12 01:02:50;;;;;;;56.35;30.48;;;3.30;99.90;;;;;;5100980;28;20405;-56
2022/01/12 01:05:20;;;;;;;63.20;33.00;;;3.30;99.90;;;;;;5101126;28;20040;-57
2022/01/12 01:07:46;;;;;;;59.60;31.90;;;3.30;99.90;;;;;;5104181;28;20594;-57
2022/01/12 01:10:18;;;;;;;59.47;31.63;;;3.30;99.90;;;;;;5098005;28;20035;-58
2022/01/12 01:12:45;;;;;;;51.50;28.42;;;3.30;99.90;;;;;;5097733;28;20035;-56
2022/01/12 01:15:14;;;;;;;54.45;29.48;;;3.30;99.90;;;;;;5106503;28;20040;-55
2022/01/12 01:25:38;;;;;;;61.60;31.90;;;3.30;99.90;;;;;;5097170;28;20048;-56
2022/01/12 01:28:06;;;;;;;52.90;28.97;;;3.30;99.90;;;;;;5099657;28;20370;-54
2022/01/12 01:30:34;;;;;;;55.80;32.13;;;3.30;99.90;;;;;;5100676;28;20089;-55
2022/01/12 01:33:05;;;;;;;56.95;30.92;;;3.30;99.90;;;;;;5074215;28;20098;-56
2022/01/12 01:35:32;;;;;;;60.33;31.25;;;3.30;99.90;;;;;;5098088;28;20051;-55
2022/01/12 01:38:00;;;;;;;55.72;31.83;;;3.30;99.90;;;;;;5103405;28;20047;-57
2022/01/12 01:40:26;;;;;;;60.33;32.92;;;3.30;99.90;;;;;;5103290;28;20092;-55
2022/01/12 01:53:39;;;;;;;54.88;29.33;;;3.30;99.90;;;;;;5084281;28;20131;-53
2022/01/12 01:56:06;;;;;;;60.07;32.87;;;3.30;99.90;;;;;;5106677;28;20036;-57
2022/01/12 01:58:31;;;;;;;61.00;32.08;;;3.30;99.90;;;;;;5087323;28;20511;-54
2022/01/12 02:00:57;;;;;;;65.20;31.27;;;3.30;99.90;;;;;;5096670;28;20036;-55
2022/01/12 02:03:27;;;;;;;62.73;32.83;;;3.30;99.90;;;;;;5098196;28;20284;-54
2022/01/12 02:05:53;;;;;;;60.35;31.60;;;3.30;99.90;;;;;;5101078;28;20458;-56
2022/01/12 02:08:19;;;;;;;60.85;30.67;;;3.30;99.90;;;;;;5101226;28;20038;-56
2022/01/12 02:10:45;;;;;;;57.20;31.45;;;3.30;99.90;;;;;;5104854;28;20386;-55
2022/01/12 02:13:10;;;;;;;56.13;32.07;;;3.30;99.90;;;;;;5096435;28;20035;-57
2022/01/12 02:15:39;;;;;;;56.07;32.70;;;3.30;99.90;;;;;;5110000;28;20035;-57
2022/01/12 02:18:17;;;;;;;58.13;30.17;;;3.30;99.90;;;;;;5100180;28;20040;-56
2022/01/12 02:40:33;;;;;;;71.15;34.80;;;3.50;99.90;;;;;;5105564;28;20496;-56
2022/01/12 02:43:08;;;;;;;72.65;37.33;;;3.50;99.90;;;;;;5076956;28;20036;-55
2022/01/12 02:53:39;;;;;;;85.80;38.00;;;3.50;99.90;;;;;;5109630;28;20064;-57
2022/01/12 02:56:06;;;;;;;91.35;40.00;;;3.50;99.90;;;;;;5108797;28;20031;-56
2022/01/12 02:58:32;;;;;;;80.93;38.97;;;3.40;99.90;;;;;;5102986;28;20551;-56
2022/01/12 03:03:25;;;;;;;115.60;43.20;;;3.40;99.90;;;;;;5101218;28;20470;-56
2022/01/12 03:05:59;;;;;;;91.20;42.42;;;3.50;99.90;;;;;;5099368;28;20036;-55
2022/01/12 03:08:26;;;;;;;99.35;43.88;;;3.40;99.90;;;;;;5092552;28;20040;-56
2022/01/12 03:10:53;;;;;;;102.22;41.30;;;3.40;99.90;;;;;;5099710;28;20067;-56
2022/01/12 03:13:19;;;;;;;110.03;44.75;;;3.40;99.90;;;;;;5098680;28;20464;-53
2022/01/12 03:15:47;;;;;;;114.82;43.65;;;3.50;99.90;;;;;;5084421;28;20264;-55
2022/01/12 03:18:13;;;;;;;96.68;42.17;;;3.50;99.90;;;;;;5085017;28;20404;-56
2022/01/12 03:20:39;;;;;;;125.45;47.40;;;3.50;99.90;;;;;;5096349;28;20034;-55
2022/01/12 03:23:05;;;;;;;118.10;44.67;;;3.50;99.90;;;;;;5110617;28;20035;-56
2022/01/12 03:25:30;;;;;;;119.00;47.90;;;3.50;99.90;;;;;;5098388;28;20518;-56
2022/01/12 03:28:00;;;;;;;131.73;47.87;;;3.50;99.90;;;;;;5101299;28;20488;-55
2022/01/12 03:30:25;;;;;;;127.68;49.13;;;3.50;99.90;;;;;;5102565;28;20040;-56
2022/01/12 03:33:06;;;;;;;165.03;50.73;;;3.50;99.90;;;;;;5106071;28;20027;-55
2022/01/12 03:36:11;;;;;;;146.50;50.13;;;3.50;99.90;;;;;;5079168;28;20059;-54
2022/01/12 03:38:35;;;;;;;104.78;44.58;;;3.50;99.90;;;;;;5086539;28;20044;-55
2022/01/12 03:41:01;;;;;;;136.57;48.33;;;3.50;99.90;;;;;;5082273;28;20043;-55
2022/01/12 03:43:26;;;;;;;165.17;50.97;;;3.50;99.90;;;;;;5098505;28;20516;-56
2022/01/12 03:45:52;;;;;;;158.43;53.57;;;3.50;99.90;;;;;;5096418;28;20420;-53
2022/01/12 03:48:18;;;;;;;126.43;49.63;;;3.60;99.90;;;;;;5102629;28;20170;-53
2022/01/12 03:50:43;;;;;;;121.50;50.10;;;3.60;99.90;;;;;;5102409;28;20447;-54
2022/01/12 03:53:09;;;;;;;136.93;52.10;;;3.60;99.90;;;;;;5100476;28;20681;-57
2022/01/12 03:55:34;;;;;;;162.67;51.43;;;3.60;99.90;;;;;;5073674;28;20040;-56
2022/01/12 03:58:00;;;;;;;155.83;51.63;;;3.60;99.90;;;;;;5104585;28;20089;-56
2022/01/12 04:00:26;;;;;;;174.37;54.93;;;3.60;99.90;;;;;;5107871;28;20028;-54
2022/01/12 04:02:51;;;;;;;153.20;53.10;;;3.60;99.90;;;;;;5093789;28;20511;-55
2022/01/12 04:08:20;;;;;;;156.50;57.25;;;3.60;99.90;;;;;;5098301;28;20043;-57
2022/01/12 04:10:55;;;;;;;182.65;54.85;;;3.60;99.90;;;;;;5080972;28;20508;-56
2022/01/12 04:13:22;;;;;;;146.05;54.35;;;3.60;99.90;;;;;;5096014;28;20036;-57
2022/01/12 04:15:52;;;;;;;155.63;53.47;;;3.60;99.90;;;;;;5101430;28;20569;-57
2022/01/12 04:18:18;;;;;;;143.70;52.08;;;3.60;99.90;;;;;;5102902;28;20044;-57
2022/01/12 04:20:48;;;;;;;165.27;55.57;;;3.60;99.90;;;;;;5102869;28;20037;-57
2022/01/12 04:23:18;;;;;;;169.52;55.53;;;3.60;99.90;;;;;;5083827;28;20285;-57
2022/01/12 04:25:49;;;;;;;199.18;58.53;;;3.70;99.90;;;;;;5099036;28;20225;-54
2022/01/12 04:28:16;;;;;;;209.35;60.33;;;3.70;99.90;;;;;;5102754;28;20039;-57
2022/01/12 04:30:43;;;;;;;192.68;58.90;;;3.70;99.90;;;;;;5084111;28;20085;-55
2022/01/12 04:33:09;;;;;;;267.70;64.72;;;3.70;99.90;;;;;;5097715;28;20225;-58
2022/01/12 04:35:45;;;;;;;181.73;57.75;;;3.70;99.90;;;;;;5101563;28;20047;-57
2022/01/12 04:38:11;;;;;;;171.15;58.47;;;3.70;99.90;;;;;;5100842;28;20558;-57
2022/01/12 04:40:36;;;;;;;264.93;65.23;;;3.70;99.90;;;;;;5094916;28;20079;-57
2022/01/12 04:43:02;;;;;;;241.95;66.53;;;3.70;99.90;;;;;;5103648;28;20114;-57
2022/01/12 04:50:20;;;;;;;175.63;54.70;;;3.70;99.90;;;;;;5094100;28;20084;-56
2022/01/12 04:52:46;;;;;;;144.38;52.88;;;3.80;99.90;;;;;;5098557;28;20075;-57
2022/01/12 04:55:12;;;;;;;141.40;53.30;;;3.80;99.90;;;;;;5102418;28;20064;-56
2022/01/12 04:57:37;;;;;;;136.00;49.07;;;3.80;99.90;;;;;;5095909;28;20401;-56
2022/01/12 05:00:13;;;;;;;192.70;63.73;;;3.80;99.90;;;;;;5080575;28;20039;-58
2022/01/12 05:08:19;;;;;;;127.72;51.45;;;3.80;99.90;;;;;;5101914;28;20119;-57
2022/01/12 05:13:35;;;;;;;191.25;60.63;;;3.80;99.90;;;;;;5063336;28;20512;-56
2022/01/12 05:16:01;;;;;;;155.20;54.33;;;3.80;99.90;;;;;;5087321;28;20141;-57
2022/01/12 05:18:27;;;;;;;146.32;55.58;;;3.90;99.90;;;;;;5104719;28;20519;-56
2022/01/12 05:20:53;;;;;;;134.40;51.58;;;3.80;99.90;;;;;;5098977;28;20044;-57
2022/01/12 05:23:19;;;;;;;127.22;50.67;;;3.80;99.90;;;;;;5096294;28;20410;-57
2022/01/12 05:25:47;;;;;;;143.80;53.63;;;3.90;99.90;;;;;;5101070;28;20043;-57
2022/01/12 05:28:14;;;;;;;202.73;57.08;;;3.80;99.90;;;;;;5101125;28;20050;-56
2022/01/12 05:30:40;;;;;;;;;;;3.90;99.90;;;;;;5103853;28;20098;-56
2022/01/12 05:33:05;;;;;;;141.48;50.78;;;3.90;99.90;;;;;;5104772;28;20392;-57
2022/01/12 05:35:33;;;;;;;196.20;55.80;;;3.80;99.90;;;;;;5099672;28;20094;-57
2022/01/12 05:38:00;;;;;;;157.32;52.63;;;3.80;99.90;;;;;;5091020;28;20042;-54
2022/01/12 05:40:26;;;;;;;121.50;46.60;;;3.80;99.90;;;;;;5105197;28;20035;-56
2022/01/12 05:42:52;;;;;;;172.00;55.97;;;3.80;99.90;;;;;;5066895;28;20038;-56
2022/01/12 05:45:19;;;;;;;113.20;45.38;;;3.80;99.90;;;;;;5101096;28;20467;-53
2022/01/12 05:50:15;;;;;;;112.78;46.55;;;3.70;99.90;;;;;;5104545;28;20424;-57
2022/01/12 05:52:41;;;;;;;108.43;44.53;;;3.70;99.90;;;;;;5097599;28;20433;-55
2022/01/12 05:55:07;;;;;;;120.80;48.80;;;3.70;99.90;;;;;;5103664;28;20124;-52
2022/01/12 05:57:34;;;;;;;130.68;49.13;;;3.70;99.90;;;;;;5102328;28;20450;-56
2022/01/12 06:00:03;;;;;;;132.25;50.30;;;3.70;99.90;;;;;;5095107;28;20080;-56
2022/01/12 06:02:28;;;;;;;139.35;53.38;;;3.70;99.90;;;;;;5109874;28;20039;-54
2022/01/12 06:04:54;;;;;;;147.17;51.63;;;3.70;99.90;;;;;;5098572;28;20040;-55
2022/01/12 06:07:19;;;;;;;129.43;48.23;;;3.70;99.90;;;;;;5105287;28;20446;-57
2022/01/12 06:09:45;;;;;;;175.37;55.87;;;3.70;99.90;;;;;;5101177;28;20115;-57
2022/01/12 06:12:11;;;;;;;135.80;49.37;;;3.60;99.90;;;;;;5085754;28;20064;-57
2022/01/12 06:14:37;;;;;;;97.07;41.87;;;3.60;99.90;;;;;;5103073;28;20043;-54
2022/01/12 06:17:03;;;;;;;157.35;52.95;;;3.60;99.90;;;;;;5094047;28;20285;-57
2022/01/12 06:19:28;;;;;;;96.20;42.45;;;3.60;99.90;;;;;;5109732;28;20554;-56
2022/01/12 06:21:54;;;;;;;103.93;43.00;;;3.60;99.90;;;;;;5105002;28;20039;-56
2022/01/12 06:24:20;;;;;;;148.60;52.03;;;3.60;99.90;;;;;;5099959;28;20062;-57
2022/01/12 06:26:47;;;;;;;135.95;47.20;;;3.60;99.90;;;;;;5102886;28;20032;-54
2022/01/12 06:31:47;;;;;;;113.43;44.92;;;3.60;99.90;;;;;;5108543;28;20059;-53
2022/01/12 06:34:13;;;;;;;115.50;46.10;;;3.60;99.90;;;;;;5099430;28;20077;-55
2022/01/12 06:36:39;;;;;;;112.90;44.40;;;3.60;99.90;;;;;;5104420;28;20108;-55
2022/01/12 06:39:07;;;;;;;133.07;48.37;;;3.70;99.90;;;;;;5074715;28;20039;-57
2022/01/12 06:41:33;;;;;;;125.55;48.25;;;3.70;99.90;;;;;;5094185;28;20049;-56
2022/01/12 06:43:58;;;;;;;113.97;44.07;;;3.70;99.90;;;;;;5113382;28;20046;-57
2022/01/12 06:46:28;;;;;;;101.23;43.73;;;3.70;99.90;;;;;;5099350;28;20032;-56
2022/01/12 06:48:54;;;;;;;117.82;42.72;;;3.70;99.90;;;;;;5078969;28;20144;-54
2022/01/12 06:51:19;;;;;;;109.67;46.00;;;3.70;99.90;;;;;;5092286;28;20520;-53
2022/01/12 06:53:45;;;;;;;122.53;47.63;;;3.70;99.90;;;;;;5092748;28;20028;-55
2022/01/12 06:56:15;;;;;;;100.03;43.57;;;3.70;99.90;;;;;;5091767;28;20050;-58
2022/01/12 06:58:41;;;;;;;133.32;45.88;;;3.80;99.90;;;;;;5092683;28;20048;-55
2022/01/12 07:01:07;;;;;;;100.10;41.58;;;3.80;99.90;;;;;;5092208;28;20472;-57
2022/01/12 07:03:34;;;;;;;101.83;41.63;;;3.80;99.90;;;;;;5051742;28;20071;-56
2022/01/12 07:05:59;;;;;;;;;;;3.80;99.90;;;;;;5089708;28;20035;-56
2022/01/12 07:08:25;;;;;;;89.13;38.15;;;3.80;99.90;;;;;;5097138;28;19923;-53
2022/01/12 07:10:50;;;;;;;109.63;43.37;;;3.80;99.90;;;;;;5098529;28;20393;-53
2022/01/12 07:13:16;;;;;;;114.10;42.27;;;3.80;99.90;;;;;;5095758;28;20028;-57
2022/01/12 07:15:44;;;;;;;99.57;43.37;;;3.80;99.90;;;;;;5106596;28;20416;-57
2022/01/12 07:18:09;;;;;;;97.22;42.83;;;3.80;99.90;;;;;;5091507;28;20028;-57
2022/01/12 07:20:35;;;;;;;97.63;41.53;;;3.80;99.90;;;;;;5073863;28;20072;-57
2022/01/12 07:23:01;;;;;;;87.18;39.00;;;3.80;99.90;;;;;;5091637;28;20410;-57
2022/01/12 07:25:27;;;;;;;96.65;41.85;;;3.80;99.90;;;;;;5091318;28;20473;-54
2022/01/12 07:27:53;;;;;;;96.47;39.77;;;3.80;99.90;;;;;;5095618;28;20040;-57
2022/01/12 07:30:20;;;;;;;103.10;42.05;;;3.80;99.90;;;;;;5058332;28;20405;-57
2022/01/12 07:32:46;;;;;;;92.18;39.08;;;3.80;99.90;;;;;;5081554;28;20465;-56
2022/01/12 07:35:12;;;;;;;90.00;39.60;;;3.80;99.90;;;;;;5075799;28;20076;-57
2022/01/12 07:37:37;;;;;;;89.53;40.50;;;3.80;99.90;;;;;;5082638;28;20075;-57
2022/01/12 07:40:03;;;;;;;94.03;40.97;;;3.80;99.90;;;;;;5058429;28;20051;-57
2022/01/12 07:42:29;;;;;;;114.93;42.78;;;3.80;99.90;;;;;;5073707;28;20119;-57
2022/01/12 07:45:00;;;;;;;81.77;35.77;;;3.80;99.90;;;;;;5062110;28;20123;-57
2022/01/12 07:47:30;;;;;;;73.45;32.03;;;3.80;99.90;;;;;;5065899;28;20068;-56
2022/01/12 07:49:57;;;;;;;87.97;34.03;;;3.70;99.90;;;;;;5082372;28;20040;-57
2022/01/12 07:52:23;;;;;;;94.93;38.60;;;3.70;99.90;;;;;;5060654;28;20028;-55
2022/01/12 07:54:49;;;;;;;88.15;37.05;;;3.70;99.90;;;;;;5078736;28;20059;-55
2022/01/12 07:57:15;;;;;;;65.25;28.55;;;3.70;99.90;;;;;;5051578;28;20047;-54
2022/01/12 07:59:41;;;;;;;69.03;32.88;;;3.80;99.90;;;;;;5075982;28;20035;-54
2022/01/12 08:02:07;;;;;;;82.03;34.95;;;3.80;99.90;;;;;;5075672;28;20040;-55
2022/01/12 08:04:34;;;;;;;74.75;32.78;;;3.80;99.90;;;;;;5072609;28;20044;-54
2022/01/12 08:06:59;;;;;;;66.85;30.70;;;3.80;99.90;;;;;;5076519;28;20039;-54
2022/01/12 08:09:25;;;;;;;68.55;29.75;;;3.80;99.90;;;;;;5055260;28;20028;-55
2022/01/12 08:11:51;;;;;;;82.40;32.23;;;3.80;99.90;;;;;;5076472;28;20044;-56
2022/01/12 08:14:16;;;;;;;78.03;33.87;;;3.80;99.90;;;;;;5073327;28;20162;-55
2022/01/12 08:16:42;;;;;;;82.70;35.27;;;3.80;99.90;;;;;;5076809;28;20055;-57
2022/01/12 08:19:08;;;;;;;96.00;35.50;;;3.90;99.90;;;;;;5075484;28;20107;-55
2022/01/12 08:21:34;;;;;;;93.55;35.50;;;3.90;99.90;;;;;;5075000;28;20119;-57
2022/01/12 08:24:00;;;;;;;78.57;34.30;;;3.90;99.90;;;;;;5070245;28;20064;-56
2022/01/12 08:26:26;;;;;;;92.17;34.10;;;4.00;99.90;;;;;;5074460;28;20036;-55
2022/01/12 08:28:52;;;;;;;94.88;36.42;;;4.00;99.90;;;;;;5071280;28;20294;-52
2022/01/12 08:31:18;;;;;;;74.00;32.33;;;4.10;99.90;;;;;;5057457;28;20124;-54
2022/01/12 08:33:49;;;;;;;69.93;31.52;;;4.00;99.90;;;;;;5065404;28;20044;-56
2022/01/12 08:36:16;;;;;;;77.65;32.90;;;4.00;99.90;;;;;;5081246;28;20052;-52
2022/01/12 08:38:42;;;;;;;82.85;31.25;;;4.10;99.90;;;;;;5074835;28;20341;-51
2022/01/12 08:41:08;;;;;;;74.20;30.58;;;4.10;99.90;;;;;;5075452;28;20050;-53
2022/01/12 08:43:34;;;;;;;77.70;30.37;;;4.10;99.90;;;;;;5074041;28;20040;-53
2022/01/12 08:45:59;;;;;;;69.47;29.02;;;4.20;99.90;;;;;;5076682;28;20166;-55
2022/01/12 08:48:25;;;;;;;75.33;32.30;;;4.30;99.90;;;;;;5084826;28;20050;-54
2022/01/12 08:50:51;;;;;;;61.38;28.42;;;4.50;99.90;;;;;;5079227;28;20035;-52
2022/01/12 08:53:17;;;;;;;55.97;28.27;;;4.60;99.90;;;;;;5078562;28;20035;-58
2022/01/12 08:55:42;;;;;;;56.00;27.20;;;4.80;99.90;;;;;;5078298;28;20702;-58
2022/01/12 08:58:08;;;;;;;49.17;23.90;;;5.00;99.90;;;;;;5074038;28;20555;-59
2022/01/12 09:00:34;;;;;;;45.23;22.23;;;5.10;99.90;;;;;;5075995;28;20046;-58
2022/01/12 09:03:01;;;;;;;48.90;23.17;;;5.20;99.90;;;;;;5066627;28;20298;-59
2022/01/12 09:05:27;;;;;;;39.25;21.33;;;5.40;99.90;;;;;;5074454;28;20368;-58
2022/01/12 09:07:53;;;;;;;44.60;21.70;;;5.50;99.90;;;;;;5069317;28;20082;-58
2022/01/12 09:10:18;;;;;;;41.07;17.67;;;5.50;99.90;;;;;;5079977;28;20659;-59
2022/01/12 09:12:44;;;;;;;35.97;17.90;;;5.50;99.90;;;;;;5074039;28;20032;-59
2022/01/12 09:15:13;;;;;;;35.33;19.27;;;5.50;99.90;;;;;;5079649;28;20281;-57
2022/01/12 09:17:39;;;;;;;40.15;19.42;;;5.50;99.90;;;;;;5073144;28;20421;-57
2022/01/12 09:20:07;;;;;;;40.25;19.52;;;5.40;99.90;;;;;;5050642;28;20648;-59
2022/01/12 09:22:35;;;;;;;39.33;19.23;;;5.40;99.90;;;;;;5072553;28;20114;-57
2022/01/12 09:25:01;;;;;;;46.83;19.27;;;5.40;99.90;;;;;;5077701;28;20413;-59
2022/01/12 09:27:26;;;;;;;42.28;19.40;;;5.30;99.90;;;;;;5083865;28;20061;-54
2022/01/12 09:29:52;;;;;;;40.60;17.23;;;5.30;99.90;;;;;;5078080;28;20119;-57
2022/01/12 09:32:18;;;;;;;47.27;18.93;;;5.30;99.90;;;;;;5060271;28;20279;-57
2022/01/12 09:34:43;;;;;;;44.65;20.10;;;5.20;99.90;;;;;;5068715;28;20146;-58
2022/01/12 09:37:09;;;;;;;54.53;19.73;;;5.20;99.90;;;;;;5074668;28;20033;-57
2022/01/12 09:39:35;;;;;;;61.35;20.27;;;5.10;99.90;;;;;;5076042;28;20309;-57
2022/01/12 09:42:03;;;;;;;62.67;22.83;;;5.10;99.90;;;;;;5080918;28;20024;-58
2022/01/12 09:44:34;;;;;;;62.35;19.67;;;5.20;99.90;;;;;;5075405;28;20036;-56
2022/01/12 09:47:01;;;;;;;55.47;18.60;;;5.10;99.90;;;;;;5076401;28;20040;-58
2022/01/12 09:49:27;;;;;;;56.25;17.27;;;5.10;99.90;;;;;;5073184;28;20477;-57
2022/01/12 09:51:55;;;;;;;52.65;16.80;;;5.20;99.90;;;;;;5075460;28;20043;-56
2022/01/12 09:54:21;;;;;;;37.10;13.15;;;5.20;99.90;;;;;;5077047;28;20115;-56
2022/01/12 09:56:47;;;;;;;43.10;14.38;;;5.20;99.90;;;;;;5081402;28;20074;-58
2022/01/12 09:59:13;;;;;;;49.08;14.98;;;5.20;99.90;;;;;;5079563;28;20032;-57
2022/01/12 10:01:43;;;;;;;52.50;17.40;;;5.20;99.90;;;;;;5084194;28;20115;-56
2022/01/12 10:04:08;;;;;;;49.05;16.52;;;5.20;99.90;;;;;;5075911;28;20036;-58
2022/01/12 10:06:36;;;;;;;52.13;16.40;;;5.20;99.90;;;;;;5080361;28;20490;-57
2022/01/12 10:09:02;;;;;;;59.95;17.42;;;5.20;99.90;;;;;;5080356;28;20068;-57
2022/01/12 10:11:28;;;;;;;53.85;17.40;;;5.20;99.90;;;;;;5091446;28;20397;-58
2022/01/12 10:13:59;;;;;;;54.13;16.77;;;5.20;99.90;;;;;;5088571;28;20034;-58
2022/01/12 10:16:26;;;;;;;50.58;13.85;;;5.30;99.90;;;;;;5089072;28;20397;-58
2022/01/12 10:18:52;;;;;;;;;;;5.30;99.90;;;;;;5092267;28;20046;-57
2022/01/12 10:21:40;;;;;;;41.88;12.02;;;5.30;99.90;;;;;;5088306;28;20011;-57
2022/01/12 10:24:09;;;;;;;39.17;12.98;;;5.30;99.90;;;;;;5067721;28;20068;-58
2022/01/12 10:26:39;;;;;;;34.00;12.80;;;5.30;99.90;;;;;;5085761;28;20078;-57
2022/01/12 10:29:08;;;;;;;47.00;12.55;;;5.30;99.90;;;;;;5086695;28;20119;-57
2022/01/12 10:31:49;;;;;;;48.30;12.18;;;5.30;99.90;;;;;;5093324;28;20127;-58
2022/01/12 10:34:16;;;;;;;39.03;11.25;;;5.30;99.90;;;;;;5088626;28;20573;-58
2022/01/12 10:36:44;;;;;;;49.15;12.70;;;5.30;99.90;;;;;;5083193;28;20120;-58
2022/01/12 10:39:12;;;;;;;48.47;11.20;;;5.30;99.90;;;;;;5078415;28;20492;-58
2022/01/12 10:41:51;;;;;;;36.63;10.18;;;5.30;99.90;;;;;;5079410;28;20040;-58
2022/01/12 10:44:26;;;;;;;32.88;9.70;;;5.30;99.90;;;;;;5075792;28;20047;-57
2022/01/12 10:47:05;;;;;;;40.63;9.55;;;5.40;99.90;;;;;;5080468;28;20060;-58
2022/01/12 10:49:33;;;;;;;30.67;9.00;;;5.40;99.90;;;;;;5077652;28;20036;-58
2022/01/12 10:51:59;;;;;;;30.75;9.95;;;5.50;99.90;;;;;;5074569;28;20048;-58
2022/01/12 10:54:24;;;;;;;32.30;9.02;;;5.50;99.90;;;;;;5064027;28;20113;-58
2022/01/12 10:56:50;;;;;;;32.53;9.10;;;5.50;99.90;;;;;;5080746;28;20109;-58
2022/01/12 10:59:17;;;;;;;32.75;8.65;;;5.50;99.90;;;;;;5088063;28;20036;-58
2022/01/12 11:01:44;;;;;;;24.05;7.07;;;5.60;99.90;;;;;;5082539;28;20038;-57
2022/01/12 11:04:10;;;;;;;29.30;7.82;;;5.60;99.90;;;;;;5074711;28;20024;-58
2022/01/12 11:06:37;;;;;;;26.45;7.68;;;5.60;99.90;;;;;;5073362;28;20045;-58
2022/01/12 11:09:04;;;;;;;24.38;7.97;;;5.70;99.90;;;;;;5080589;28;20790;-57
2022/01/12 11:11:29;;;;;;;33.20;8.48;;;5.70;99.90;;;;;;5075565;28;20421;-58
2022/01/12 11:13:55;;;;;;;31.03;8.70;;;5.80;99.90;;;;;;5085583;28;20032;-58
2022/01/12 11:16:27;;;;;;;25.60;8.50;;;5.80;99.90;;;;;;5073898;28;20075;-56
2022/01/12 11:18:54;;;;;;;29.52;8.55;;;5.80;99.90;;;;;;5081163;28;20040;-58
2022/01/12 11:21:41;;;;;;;27.38;7.72;;;5.80;99.90;;;;;;5071549;28;20141;-58
2022/01/12 11:24:07;;;;;;;28.60;7.63;;;5.80;99.90;;;;;;5079545;28;20689;-57
2022/01/12 11:26:33;;;;;;;31.67;8.25;;;5.70;99.90;;;;;;5061375;28;20090;-58
2022/01/12 11:28:59;;;;;;;32.47;9.80;;;5.80;99.90;;;;;;5077192;28;20185;-58
2022/01/12 11:31:34;;;;;;;30.20;8.95;;;5.70;99.90;;;;;;5080127;28;20040;-59
2022/01/12 11:34:00;;;;;;;40.92;9.10;;;5.80;99.90;;;;;;5079372;28;20032;-58
2022/01/12 11:36:39;;;;;;;29.52;8.80;;;5.80;99.90;;;;;;5076835;28;20035;-58
2022/01/12 11:39:11;;;;;;;33.55;8.63;;;5.70;99.90;;;;;;5077883;28;20070;-57
2022/01/12 11:41:39;;;;;;;29.05;8.57;;;5.80;99.90;;;;;;5075660;28;20079;-58
2022/01/12 11:44:09;;;;;;;28.38;7.53;;;5.80;99.90;;;;;;5072894;28;20102;-58
2022/01/12 11:46:47;;;;;;;32.00;8.13;;;5.80;99.90;;;;;;5077300;28;20040;-58
2022/01/12 11:49:25;;;;;;;26.80;8.02;;;5.80;99.90;;;;;;5061853;28;20039;-57
2022/01/12 11:51:51;;;;;;;33.63;8.70;;;5.80;99.90;;;;;;5072136;28;20032;-58
2022/01/12 11:54:31;;;;;;;28.13;7.43;;;5.80;99.90;;;;;;5085388;28;20497;-58
2022/01/12 11:57:01;;;;;;;25.08;8.35;;;5.90;99.90;;;;;;5085115;28;20040;-58
2022/01/12 11:59:30;;;;;;;28.45;7.18;;;5.90;99.90;;;;;;5074140;28;20041;-58
2022/01/12 12:02:08;;;;;;;33.13;7.93;;;5.90;99.90;;;;;;5076962;28;20032;-57
2022/01/12 12:04:34;;;;;;;31.00;9.23;;;6.10;99.90;;;;;;5077197;28;20071;-58
2022/01/12 12:07:10;;;;;;;28.38;6.45;;;6.50;99.90;;;;;;5076990;28;20474;-56
2022/01/12 12:09:38;;;;;;;26.63;6.63;;;6.90;99.90;;;;;;5077671;28;20036;-58
2022/01/12 12:12:15;;;;;;;25.48;7.30;;;7.00;99.90;;;;;;5083711;28;20032;-58
2022/01/12 12:14:57;;;;;;;20.27;6.75;;;6.90;99.90;;;;;;5088626;28;20041;-56
2022/01/12 12:17:25;;;;;;;21.48;6.95;;;6.80;99.90;;;;;;5064947;28;20121;-57
2022/01/12 12:19:51;;;;;;;26.80;8.35;;;6.70;99.90;;;;;;5070868;28;20044;-59
2022/01/12 12:22:25;;;;;;;26.67;8.07;;;6.70;99.90;;;;;;5075445;28;20036;-57
2022/01/12 12:24:59;;;;;;;37.88;9.95;;;6.60;99.90;;;;;;5072116;28;20421;-58
2022/01/12 12:27:27;;;;;;;31.33;7.78;;;6.60;99.90;;;;;;5074597;28;20531;-57
2022/01/12 12:29:53;;;;;;;30.60;8.63;;;6.50;99.90;;;;;;5080267;28;20051;-57
2022/01/12 12:32:32;;;;;;;32.17;7.78;;;6.50;99.90;;;;;;5061381;28;20044;-58
2022/01/12 12:35:03;;;;;;;30.27;7.07;;;6.40;99.90;;;;;;5081711;28;20050;-58
2022/01/12 12:37:45;;;;;;;35.90;8.27;;;6.40;99.90;;;;;;5072922;28;20401;-56
2022/01/12 12:40:26;;;;;;;37.65;8.48;;;6.30;99.90;;;;;;5070945;28;20389;-58
2022/01/12 12:43:08;;;;;;;27.58;7.65;;;6.30;99.90;;;;;;5076529;28;20115;-58
2022/01/12 12:45:43;;;;;;;32.63;8.80;;;6.60;99.90;;;;;;5071763;28;20044;-58
2022/01/12 12:48:11;;;;;;;25.85;7.85;;;6.90;99.90;;;;;;5079664;28;20047;-58
2022/01/12 12:50:37;;;;;;;29.23;8.10;;;7.00;99.90;;;;;;5078237;28;20509;-54
2022/01/12 12:53:03;;;;;;;37.13;9.00;;;7.00;99.90;;;;;;5070266;28;20043;-56
2022/01/12 12:55:40;;;;;;;27.20;10.13;;;7.00;99.90;;;;;;5058403;28;20039;-56
2022/01/12 12:58:06;;;;;;;30.35;8.20;;;7.00;99.90;;;;;;5079277;28;20684;-56
2022/01/12 13:00:34;;;;;;;27.48;9.15;;;6.90;99.90;;;;;;5086282;28;20037;-57
2022/01/12 13:03:01;;;;;;;25.20;7.65;;;6.80;99.90;;;;;;5077865;28;20043;-57
2022/01/12 13:05:32;;;;;;;24.33;8.20;;;6.80;99.90;;;;;;5074568;28;20096;-56
2022/01/12 13:07:58;;;;;;;30.90;10.15;;;6.70;99.90;;;;;;5061580;28;20033;-57
2022/01/12 13:10:26;;;;;;;28.10;9.63;;;6.80;99.90;;;;;;5056317;28;20033;-54
2022/01/12 13:12:59;;;;;;;17.05;7.38;;;7.10;99.90;;;;;;5078100;28;20509;-58
2022/01/12 13:15:32;;;;;;;29.08;7.68;;;8.00;99.90;;;;;;5074998;28;20028;-59
2022/01/12 13:18:05;;;;;;;23.90;8.38;;;8.80;99.90;;;;;;5081697;28;20070;-58
2022/01/12 13:23:24;;;;;;;28.42;8.60;;;8.70;99.90;;;;;;5078753;28;20469;-59
2022/01/12 13:25:54;;;;;;;25.38;6.80;;;8.50;99.90;;;;;;5069799;28;20040;-58
2022/01/12 13:28:20;;;;;;;27.17;7.13;;;8.60;99.90;;;;;;5059409;28;20044;-59
2022/01/12 13:30:51;;;;;;;23.15;7.63;;;9.10;99.90;;;;;;5079709;28;20032;-59
2022/01/12 13:33:38;;;;;;;24.75;7.72;;;9.30;99.90;;;;;;5062538;28;20064;-58
2022/01/12 13:36:34;;;;;;;23.45;6.45;;;9.20;99.90;;;;;;5083027;28;20032;-59
2022/01/12 13:39:07;;;;;;;23.15;7.75;;;8.70;99.90;;;;;;5065050;28;20059;-59
2022/01/12 13:41:36;;;;;;;22.30;7.15;;;8.40;99.90;;;;;;5087357;28;20082;-58
2022/01/12 13:44:08;;;;;;;20.98;7.68;;;8.10;99.90;;;;;;5080772;28;20047;-58
2022/01/12 13:46:40;;;;;;;21.98;7.88;;;7.80;99.90;;;;;;5056640;28;20045;-59
2022/01/12 13:51:37;;;;;;;36.20;10.82;;;7.40;99.90;;;;;;5078029;28;20389;-55
2022/01/12 13:54:12;;;;;;;26.63;10.13;;;7.30;99.90;;;;;;5086638;28;20043;-57
2022/01/12 13:56:44;;;;;;;26.20;9.30;;;7.20;99.90;;;;;;5078653;28;20040;-58
2022/01/12 13:59:11;;;;;;;28.35;9.20;;;7.10;99.90;;;;;;5057295;28;20548;-56
2022/01/12 14:01:42;;;;;;;27.58;8.85;;;7.00;99.90;;;;;;5079519;28;20043;-57
2022/01/12 14:04:13;;;;;;;28.17;11.50;;;7.00;99.90;;;;;;5082377;28;20094;-57